Andover, South Dakota
Current Conditions -  °F | °C
As of 12:53 PM on Sunday 23 Nov 2014 (Local Time) from KABR Reporting Station
Overcast Overcast  
Wind Chill: 27°   Ceiling: 3700
Heat Index: 38°   Visibility: 10mi
Dew Point: 26°   Wind: 23mph
Humidity: 62%   Direction: 310°NW
Pressure: 29.55"   Gusts: 29mph
Location:  45.41°N, 97.9°W
Report Text: KABR 231853Z AUTO 31020G25KT 10SM OVC037 03/M03 A2955 RMK AO2 PK WND 30026/1833 SLP016 T00331033
Loading
Personal Weather Stations






























Interactive Weather Map New forecast layout! Learn more

10-Day Weather Forecast

Advertisements
Track Severe Weather on mobile